Time;durP1;ratioP1;P1;durP2;ratioP2;P2;SDS_P1;SDS_P2;PMS_P1;PMS_P2;Temp;Humidity;BMP_temperature;BMP_pressure;BME280_temperature;BME280_humidity;BME280_pressure;Samples;Min_cycle;Max_cycle;Signal;HPM_P1;HPM_P2
2021/06/22 00:00:30;;;;;;;9.60;9.00;;;36.00;45.10;;;;;;5082977;28;20483;-26
2021/06/22 00:03:01;;;;;;;9.93;9.27;;;36.00;45.10;;;;;;5085066;28;20460;-22
2021/06/22 00:05:35;;;;;;;11.17;10.37;;;36.00;44.20;;;;;;5067520;28;20589;-23
2021/06/22 00:08:07;;;;;;;11.53;10.53;;;35.80;44.70;;;;;;5083903;28;20979;-29
2021/06/22 00:10:38;;;;;;;11.67;10.67;;;35.80;44.40;;;;;;5082209;28;20826;-29
2021/06/22 00:13:10;;;;;;;11.40;10.60;;;35.80;44.40;;;;;;5083550;28;20454;-26
2021/06/22 00:15:41;;;;;;;11.80;10.90;;;35.90;43.90;;;;;;5084384;28;20829;-26
2021/06/22 00:18:13;;;;;;;11.30;10.50;;;35.80;45.40;;;;;;5083217;28;20462;-25
2021/06/22 00:20:46;;;;;;;10.30;9.50;;;35.80;45.40;;;;;;5082715;28;20491;-25
2021/06/22 00:23:17;;;;;;;11.60;10.67;;;35.70;44.00;;;;;;5084134;28;20446;-27
2021/06/22 00:25:48;;;;;;;11.93;11.10;;;35.60;44.50;;;;;;5082307;28;20595;-24
2021/06/22 00:28:19;;;;;;;13.13;12.00;;;35.50;45.60;;;;;;5067724;28;20446;-24
2021/06/22 00:30:50;;;;;;;13.50;12.40;;;35.40;46.30;;;;;;5081712;28;20535;-24
2021/06/22 00:33:22;;;;;;;10.70;10.07;;;35.40;45.90;;;;;;5083991;28;20454;-25
2021/06/22 00:35:55;;;;;;;7.90;7.30;;;35.50;44.10;;;;;;5083085;28;20447;-23
2021/06/22 00:38:26;;;;;;;8.30;7.80;;;35.30;46.00;;;;;;5083340;28;20438;-25
2021/06/22 00:40:57;;;;;;;8.97;8.33;;;35.10;45.50;;;;;;5081592;28;20502;-26
2021/06/22 00:43:28;;;;;;;6.63;5.93;;;35.10;45.80;;;;;;5084031;28;20463;-26
2021/06/22 00:45:59;;;;;;;6.13;5.70;;;34.90;45.30;;;;;;5083108;28;20500;-23
2021/06/22 00:48:31;;;;;;;6.13;5.57;;;34.80;46.50;;;;;;5083399;28;20505;-24
2021/06/22 00:51:04;;;;;;;5.40;4.97;;;34.70;45.80;;;;;;5077873;28;20531;-24
2021/06/22 00:53:37;;;;;;;4.20;3.90;;;34.60;45.80;;;;;;5083848;28;20439;-22
2021/06/22 00:56:08;;;;;;;3.57;3.37;;;34.40;45.50;;;;;;5082313;28;20867;-23
2021/06/22 00:58:39;;;;;;;6.07;4.80;;;34.30;45.80;;;;;;5079440;28;20477;-22
2021/06/22 01:01:10;;;;;;;5.53;4.57;;;34.30;45.00;;;;;;5082699;28;20564;-24
2021/06/22 01:03:42;;;;;;;5.23;4.77;;;34.10;45.50;;;;;;5080350;28;20467;-24
2021/06/22 01:06:14;;;;;;;5.30;4.80;;;34.00;46.60;;;;;;5082469;28;20446;-24
2021/06/22 01:08:46;;;;;;;4.63;4.23;;;33.90;47.90;;;;;;5083129;28;20512;-24
2021/06/22 01:11:18;;;;;;;4.50;4.20;;;33.80;47.70;;;;;;5082742;28;20444;-24
2021/06/22 01:13:49;;;;;;;4.40;4.10;;;33.80;48.30;;;;;;5075882;28;20943;-24
2021/06/22 01:16:25;;;;;;;3.93;3.50;;;33.80;48.90;;;;;;5083210;28;20451;-23
2021/06/22 01:19:03;;;;;;;4.37;3.97;;;33.80;48.30;;;;;;5082926;28;20457;-24
2021/06/22 01:21:36;;;;;;;4.27;3.87;;;33.80;47.90;;;;;;5082251;28;20441;-24
2021/06/22 01:24:09;;;;;;;3.80;3.50;;;33.70;49.60;;;;;;5075143;28;20822;-24
2021/06/22 01:26:45;;;;;;;4.03;3.70;;;33.60;49.60;;;;;;5083180;28;20446;-24
2021/06/22 01:29:16;;;;;;;4.07;3.77;;;33.50;50.60;;;;;;5067596;28;20454;-23
2021/06/22 01:31:48;;;;;;;3.83;3.63;;;33.50;50.00;;;;;;5082101;28;20477;-24
2021/06/22 01:34:23;;;;;;;4.60;3.50;;;33.40;49.50;;;;;;5081779;28;20445;-26
2021/06/22 01:36:57;;;;;;;4.13;3.70;;;33.20;50.50;;;;;;5082185;28;20497;-23
2021/06/22 01:39:28;;;;;;;3.70;3.50;;;33.10;50.80;;;;;;5081021;28;22343;-26
2021/06/22 01:41:59;;;;;;;5.30;3.70;;;33.10;50.60;;;;;;5081916;28;20458;-24
2021/06/22 01:44:30;;;;;;;4.27;3.90;;;33.00;51.40;;;;;;5082467;28;20483;-25
2021/06/22 01:47:01;;;;;;;3.97;3.67;;;33.00;51.90;;;;;;5082329;28;20445;-23
2021/06/22 01:49:34;;;;;;;3.97;3.77;;;32.80;51.60;;;;;;5066748;28;20474;-26
2021/06/22 01:52:07;;;;;;;4.20;3.90;;;32.80;50.20;;;;;;5081781;28;20447;-26
2021/06/22 01:54:38;;;;;;;4.10;3.70;;;32.70;50.50;;;;;;5081389;28;20536;-24
2021/06/22 01:57:09;;;;;;;4.37;3.80;;;32.70;49.70;;;;;;5081353;28;20522;-23
2021/06/22 01:59:42;;;;;;;3.87;3.67;;;32.70;49.30;;;;;;5081622;28;20480;-26
2021/06/22 02:02:13;;;;;;;3.60;3.40;;;32.60;48.50;;;;;;5082261;28;20841;-24
2021/06/22 02:04:44;;;;;;;4.23;3.63;;;32.60;48.30;;;;;;5081409;28;20447;-25
2021/06/22 02:07:16;;;;;;;4.53;3.70;;;32.60;48.30;;;;;;5081125;28;20438;-22
2021/06/22 02:09:48;;;;;;;5.40;3.50;;;32.50;48.90;;;;;;5081315;28;20466;-23
2021/06/22 02:12:19;;;;;;;4.27;3.87;;;32.40;48.20;;;;;;5081566;28;20560;-26
2021/06/22 02:14:50;;;;;;;4.07;3.77;;;32.30;48.40;;;;;;5081786;28;20534;-24
2021/06/22 02:17:21;;;;;;;3.73;3.50;;;32.30;49.10;;;;;;5082625;28;20518;-24
2021/06/22 02:19:52;;;;;;;3.80;3.50;;;32.20;49.00;;;;;;5081817;28;20922;-24
2021/06/22 02:22:24;;;;;;;5.00;3.63;;;32.10;49.60;;;;;;5076793;28;20887;-27
2021/06/22 02:24:55;;;;;;;4.70;3.70;;;32.00;49.40;;;;;;5081180;28;20441;-20
2021/06/22 02:27:31;;;;;;;3.37;3.13;;;31.90;48.90;;;;;;5082283;28;20493;-26
2021/06/22 02:30:03;;;;;;;3.80;3.60;;;31.80;49.80;;;;;;5081846;28;20449;-28
2021/06/22 02:32:34;;;;;;;3.87;3.60;;;31.70;49.70;;;;;;5081501;28;20449;-23
2021/06/22 02:35:06;;;;;;;3.57;3.30;;;31.70;50.10;;;;;;5081902;28;20477;-28
2021/06/22 02:37:39;;;;;;;3.70;3.40;;;31.60;51.00;;;;;;5081914;28;20458;-23
2021/06/22 02:40:12;;;;;;;3.90;3.60;;;31.70;50.20;;;;;;5079841;28;20482;-24
2021/06/22 02:42:43;;;;;;;4.77;3.40;;;31.70;50.30;;;;;;5082123;28;20454;-25
2021/06/22 02:45:15;;;;;;;6.40;3.43;;;31.60;51.00;;;;;;5084250;28;20504;-23
2021/06/22 02:47:48;;;;;;;4.23;3.90;;;31.60;50.50;;;;;;5082413;28;20551;-23
2021/06/22 02:50:21;;;;;;;4.33;3.93;;;31.50;50.60;;;;;;5085409;28;20454;-23
2021/06/22 02:52:53;;;;;;;3.57;3.27;;;31.40;51.20;;;;;;5084867;28;20544;-22
2021/06/22 02:55:25;;;;;;;3.73;3.43;;;31.30;52.30;;;;;;5084412;28;20451;-23
2021/06/22 02:57:58;;;;;;;4.87;3.43;;;31.20;52.90;;;;;;5085836;28;20454;-26
2021/06/22 03:00:32;;;;;;;3.80;3.50;;;31.10;53.00;;;;;;5082292;28;20496;-26
2021/06/22 03:03:03;;;;;;;3.80;3.50;;;31.00;54.10;;;;;;5085289;28;20454;-26
2021/06/22 03:05:35;;;;;;;3.30;3.10;;;30.90;54.30;;;;;;5083520;28;20480;-22
2021/06/22 03:08:08;;;;;;;6.70;3.67;;;30.70;54.70;;;;;;5077101;28;20455;-24
2021/06/22 03:10:39;;;;;;;4.17;3.80;;;30.60;55.80;;;;;;5083715;28;20887;-28
2021/06/22 03:13:10;;;;;;;3.73;3.40;;;30.50;56.00;;;;;;5084131;28;20469;-24
2021/06/22 03:15:41;;;;;;;5.23;3.10;;;30.50;55.80;;;;;;5078684;28;20838;-23
2021/06/22 03:18:12;;;;;;;3.80;3.50;;;30.30;55.80;;;;;;5085239;28;20455;-26
2021/06/22 03:20:43;;;;;;;3.43;3.23;;;30.20;56.40;;;;;;5084182;28;20491;-24
2021/06/22 03:23:16;;;;;;;3.70;2.90;;;30.10;57.00;;;;;;5085052;28;20513;-23
2021/06/22 03:25:47;;;;;;;4.30;3.73;;;30.00;57.60;;;;;;5078865;28;20447;-23
2021/06/22 03:28:18;;;;;;;3.40;3.10;;;29.70;58.20;;;;;;5084074;28;20444;-25
2021/06/22 03:30:49;;;;;;;3.20;3.00;;;29.60;58.90;;;;;;5083622;28;20471;-23
2021/06/22 03:33:20;;;;;;;5.47;3.13;;;29.60;58.70;;;;;;5084036;28;20485;-29
2021/06/22 03:35:51;;;;;;;3.70;3.40;;;29.50;58.20;;;;;;5081727;28;20477;-22
2021/06/22 03:38:24;;;;;;;3.53;3.23;;;29.50;58.30;;;;;;5084518;28;20497;-24
2021/06/22 03:40:55;;;;;;;3.90;3.47;;;29.40;58.30;;;;;;5082395;28;20598;-26
2021/06/22 03:43:26;;;;;;;3.70;3.40;;;29.40;58.80;;;;;;5083957;28;20513;-24
2021/06/22 03:45:58;;;;;;;5.77;3.40;;;29.30;58.50;;;;;;5084043;28;20529;-23
2021/06/22 03:49:08;;;;;;;4.63;3.53;;;29.20;58.90;;;;;;5084686;28;20538;-24
2021/06/22 03:51:40;;;;;;;4.10;3.30;;;29.10;58.40;;;;;;5081647;28;20443;-23
2021/06/22 03:54:12;;;;;;;3.43;3.13;;;29.00;58.40;;;;;;5081701;28;20851;-24
2021/06/22 03:56:43;;;;;;;3.43;3.13;;;28.90;59.00;;;;;;5081160;28;20476;-26
2021/06/22 03:59:14;;;;;;;4.50;3.13;;;28.70;59.50;;;;;;5084329;28;20501;-23
2021/06/22 04:01:45;;;;;;;2.90;2.70;;;28.60;59.50;;;;;;5081309;28;20830;-27
2021/06/22 04:04:16;;;;;;;3.87;2.90;;;28.60;59.30;;;;;;5083639;28;20933;-23
2021/06/22 04:06:48;;;;;;;3.77;2.90;;;28.50;59.70;;;;;;5083273;28;20455;-29
2021/06/22 04:09:25;;;;;;;3.40;3.10;;;28.30;60.00;;;;;;5082485;28;20927;-28
2021/06/22 04:11:56;;;;;;;3.73;3.43;;;28.20;60.30;;;;;;5083828;28;20446;-26
2021/06/22 04:14:27;;;;;;;4.60;2.73;;;28.10;59.80;;;;;;5083992;28;20447;-24
2021/06/22 04:16:58;;;;;;;4.77;3.83;;;28.00;60.30;;;;;;5082965;28;20445;-24
2021/06/22 04:19:29;;;;;;;8.90;7.13;;;27.80;61.30;;;;;;5083470;28;20452;-23
2021/06/22 04:22:00;;;;;;;13.90;12.53;;;27.70;61.00;;;;;;5082963;28;20481;-23
2021/06/22 04:24:33;;;;;;;15.00;13.70;;;27.70;62.10;;;;;;5081907;28;20454;-23
2021/06/22 04:27:04;;;;;;;18.77;16.90;;;27.60;61.70;;;;;;5082775;28;20453;-23
2021/06/22 04:29:36;;;;;;;16.20;14.67;;;27.50;61.90;;;;;;5083373;28;20444;-23
2021/06/22 04:32:07;;;;;;;16.70;14.83;;;27.40;61.60;;;;;;5083539;28;20451;-24
2021/06/22 04:34:38;;;;;;;12.50;11.20;;;27.30;62.40;;;;;;5082790;28;20479;-23
2021/06/22 04:37:09;;;;;;;11.87;10.70;;;27.30;62.90;;;;;;5082147;28;20459;-22
2021/06/22 04:39:42;;;;;;;7.10;6.50;;;27.10;63.90;;;;;;5081252;28;20480;-24
2021/06/22 04:42:13;;;;;;;5.40;4.90;;;27.00;63.90;;;;;;5082945;28;20472;-23
2021/06/22 04:45:00;;;;;;;4.13;3.83;;;27.00;64.20;;;;;;5082900;28;20443;-23
2021/06/22 04:47:33;;;;;;;3.60;3.23;;;26.90;64.70;;;;;;5082900;28;20479;-24
2021/06/22 04:50:05;;;;;;;4.70;3.60;;;26.80;65.00;;;;;;5082655;28;20470;-26
2021/06/22 04:52:36;;;;;;;2.80;2.57;;;26.80;64.80;;;;;;5082145;28;20479;-24
2021/06/22 04:55:14;;;;;;;3.27;3.00;;;26.70;65.60;;;;;;5079402;28;20474;-23
2021/06/22 04:57:47;;;;;;;3.73;3.40;;;26.70;65.10;;;;;;5080955;28;20444;-24
2021/06/22 05:00:18;;;;;;;3.40;2.70;;;26.60;65.90;;;;;;5082574;28;20449;-23
2021/06/22 05:02:50;;;;;;;4.00;2.67;;;26.60;66.70;;;;;;5080269;28;20586;-22
2021/06/22 05:05:21;;;;;;;4.43;2.83;;;26.50;66.20;;;;;;5082494;28;20445;-23
2021/06/22 05:07:52;;;;;;;3.10;2.43;;;26.50;65.20;;;;;;5083050;28;20448;-24
2021/06/22 05:10:25;;;;;;;4.27;2.90;;;26.40;66.40;;;;;;5081993;28;20525;-23
2021/06/22 05:12:56;;;;;;;3.30;3.00;;;26.40;65.60;;;;;;5082222;28;20452;-23
2021/06/22 05:15:27;;;;;;;2.50;2.40;;;26.30;65.20;;;;;;5082819;28;20962;-23
2021/06/22 05:17:58;;;;;;;3.60;2.60;;;26.30;65.70;;;;;;5066775;28;20448;-22
2021/06/22 05:20:34;;;;;;;4.17;2.80;;;26.20;66.40;;;;;;5082729;28;20482;-22
2021/06/22 05:23:05;;;;;;;3.73;2.73;;;26.10;66.80;;;;;;5082537;28;20487;-23
2021/06/22 05:25:38;;;;;;;3.27;2.73;;;26.10;67.50;;;;;;5080748;28;20448;-24
2021/06/22 05:28:09;;;;;;;3.07;2.40;;;26.00;67.60;;;;;;5079035;28;20469;-22
2021/06/22 05:30:40;;;;;;;6.77;2.97;;;25.90;68.50;;;;;;5083051;28;20444;-22
2021/06/22 05:33:11;;;;;;;2.57;2.30;;;25.80;68.90;;;;;;5082122;28;20487;-22
2021/06/22 05:35:42;;;;;;;2.20;2.10;;;25.80;68.80;;;;;;5082120;28;20447;-23
2021/06/22 05:38:13;;;;;;;3.10;2.10;;;25.70;69.10;;;;;;5082414;28;20452;-26
2021/06/22 05:40:46;;;;;;;2.90;2.70;;;25.70;69.50;;;;;;5081033;28;20462;-23
2021/06/22 05:43:17;;;;;;;2.67;2.50;;;25.60;69.40;;;;;;5081883;28;20495;-22
2021/06/22 05:45:48;;;;;;;2.77;2.50;;;25.60;70.80;;;;;;5082258;28;20447;-26
2021/06/22 05:48:19;;;;;;;4.17;2.47;;;25.50;71.00;;;;;;5066018;28;20597;-22
2021/06/22 05:50:50;;;;;;;2.43;2.13;;;25.40;72.80;;;;;;5081717;28;20467;-23
2021/06/22 05:53:21;;;;;;;3.27;2.37;;;25.30;71.40;;;;;;5082251;28;20452;-22
2021/06/22 05:55:54;;;;;;;2.93;2.73;;;25.30;72.20;;;;;;5078175;28;20448;-21
2021/06/22 05:58:25;;;;;;;3.17;2.87;;;25.30;72.70;;;;;;5082201;28;20454;-22
2021/06/22 06:00:56;;;;;;;2.60;2.27;;;25.20;73.80;;;;;;5081665;28;20515;-22
2021/06/22 06:03:28;;;;;;;3.10;2.70;;;25.10;73.90;;;;;;5080901;28;20487;-25
2021/06/22 06:05:59;;;;;;;2.70;2.20;;;25.00;73.70;;;;;;5081927;28;20452;-24
2021/06/22 06:08:30;;;;;;;3.40;2.70;;;24.90;74.30;;;;;;5082184;28;20455;-22
2021/06/22 06:11:02;;;;;;;3.00;2.60;;;24.90;76.20;;;;;;5080671;28;20448;-22
2021/06/22 06:13:34;;;;;;;2.70;2.50;;;24.80;75.10;;;;;;5082097;28;20773;-22
2021/06/22 06:16:05;;;;;;;3.87;2.87;;;24.70;76.30;;;;;;5082011;28;20447;-23
2021/06/22 06:18:36;;;;;;;2.80;2.60;;;24.60;75.50;;;;;;5081898;28;20470;-22
2021/06/22 06:21:07;;;;;;;3.20;2.30;;;24.60;72.20;;;;;;5085788;28;20893;-22
2021/06/22 06:23:40;;;;;;;2.67;2.47;;;24.60;72.70;;;;;;5085875;28;20572;-22
2021/06/22 06:26:15;;;;;;;3.37;2.50;;;24.60;73.40;;;;;;5084585;28;20447;-27
2021/06/22 06:28:50;;;;;;;2.33;2.13;;;24.50;72.60;;;;;;5085607;28;20435;-23
2021/06/22 06:31:21;;;;;;;3.50;2.40;;;24.50;74.60;;;;;;5086697;28;20431;-22
2021/06/22 06:33:53;;;;;;;2.43;2.13;;;24.40;73.70;;;;;;5085946;28;20451;-22
2021/06/22 06:36:23;;;;;;;2.60;2.40;;;24.30;74.40;;;;;;5085755;28;20530;-23
2021/06/22 06:38:56;;;;;;;5.10;2.17;;;24.20;73.10;;;;;;5085433;28;20565;-23
2021/06/22 06:41:29;;;;;;;3.13;2.30;;;24.20;74.10;;;;;;5085075;28;20458;-22
2021/06/22 06:44:00;;;;;;;2.77;2.57;;;24.20;74.80;;;;;;5085378;28;20521;-22
2021/06/22 06:46:31;;;;;;;3.63;2.17;;;24.00;75.70;;;;;;5085946;28;20455;-23
2021/06/22 06:49:05;;;;;;;4.33;2.63;;;24.00;74.90;;;;;;5085012;28;20487;-22
2021/06/22 06:51:36;;;;;;;3.70;2.50;;;24.10;79.00;;;;;;5085705;28;20462;-21
2021/06/22 06:54:07;;;;;;;2.83;2.60;;;24.00;76.80;;;;;;5084523;28;20447;-22
2021/06/22 06:56:40;;;;;;;3.00;2.63;;;23.90;80.00;;;;;;5085663;28;20469;-25
2021/06/22 06:59:11;;;;;;;2.53;2.33;;;23.80;78.10;;;;;;5085167;28;20489;-22
2021/06/22 07:01:42;;;;;;;4.63;2.53;;;23.70;77.40;;;;;;5085417;28;20479;-22
2021/06/22 07:04:13;;;;;;;3.03;2.53;;;23.60;78.10;;;;;;5084534;28;20602;-23
2021/06/22 07:06:44;;;;;;;5.07;2.17;;;23.60;77.60;;;;;;5085275;28;20463;-23
2021/06/22 07:09:15;;;;;;;2.37;2.13;;;23.50;78.80;;;;;;5084569;28;20458;-22
2021/06/22 07:11:47;;;;;;;2.20;2.00;;;23.40;78.90;;;;;;5084946;28;20458;-21
2021/06/22 07:14:19;;;;;;;2.93;2.60;;;23.30;78.80;;;;;;5085064;28;20464;-28
2021/06/22 07:16:50;;;;;;;2.40;2.20;;;23.20;78.70;;;;;;5085843;28;20447;-22
2021/06/22 07:19:24;;;;;;;2.40;2.20;;;23.20;80.50;;;;;;5084502;28;20459;-24
2021/06/22 07:21:55;;;;;;;8.10;2.53;;;23.10;80.00;;;;;;5085222;28;20467;-22
2021/06/22 07:24:26;;;;;;;3.43;2.50;;;23.10;80.70;;;;;;5083967;28;20514;-21
2021/06/22 07:26:58;;;;;;;2.70;2.50;;;23.10;81.40;;;;;;5084622;28;20448;-22
2021/06/22 07:29:29;;;;;;;2.70;2.30;;;23.00;82.30;;;;;;5084958;28;20475;-23
2021/06/22 07:32:00;;;;;;;3.03;2.40;;;23.00;83.00;;;;;;5085651;28;20447;-22
2021/06/22 07:34:31;;;;;;;3.53;2.60;;;22.80;83.20;;;;;;5084609;28;20586;-22
2021/06/22 07:37:02;;;;;;;3.50;2.90;;;22.70;83.50;;;;;;5084495;28;20490;-22
2021/06/22 07:39:33;;;;;;;3.13;2.50;;;22.70;85.50;;;;;;5083943;28;20452;-22
2021/06/22 07:42:06;;;;;;;4.30;2.50;;;22.60;85.10;;;;;;5084828;28;20475;-22
2021/06/22 07:44:37;;;;;;;3.50;2.07;;;22.60;85.40;;;;;;5084843;28;20566;-21
2021/06/22 07:47:08;;;;;;;2.80;2.50;;;22.60;85.80;;;;;;5084691;28;20864;-22
2021/06/22 07:49:58;;;;;;;3.20;2.37;;;22.60;86.20;;;;;;5083313;28;20451;-24
2021/06/22 07:52:30;;;;;;;4.60;2.87;;;22.60;87.00;;;;;;5085061;28;20462;-22
2021/06/22 07:55:01;;;;;;;4.30;2.43;;;22.50;87.80;;;;;;5083173;28;20440;-24
2021/06/22 07:57:34;;;;;;;3.63;2.50;;;22.40;89.80;;;;;;5084320;28;20850;-21
2021/06/22 08:00:18;;;;;;;5.17;2.90;;;22.30;90.60;;;;;;5083542;28;20441;-26
2021/06/22 08:02:50;;;;;;;3.40;2.73;;;22.20;90.70;;;;;;5083837;28;20548;-24
2021/06/22 08:05:21;;;;;;;2.73;2.50;;;22.20;90.90;;;;;;5084016;28;20447;-24
2021/06/22 08:07:53;;;;;;;5.10;2.33;;;22.10;91.00;;;;;;5084399;28;20489;-22
2021/06/22 08:10:24;;;;;;;3.60;2.63;;;22.00;91.80;;;;;;5083126;28;20459;-22
2021/06/22 08:12:57;;;;;;;4.00;2.50;;;21.90;92.40;;;;;;5083898;28;20418;-22
2021/06/22 08:15:29;;;;;;;3.67;2.70;;;21.90;92.80;;;;;;5084045;28;20453;-22
2021/06/22 08:18:00;;;;;;;3.80;3.00;;;21.90;93.60;;;;;;5084320;28;20448;-22
2021/06/22 08:20:31;;;;;;;3.20;2.73;;;21.90;93.50;;;;;;5083640;28;20497;-21
2021/06/22 08:23:02;;;;;;;4.63;3.60;;;21.80;94.40;;;;;;5083795;28;20469;-23
2021/06/22 08:25:34;;;;;;;7.30;2.63;;;21.80;94.90;;;;;;5083093;28;20493;-22
2021/06/22 08:28:07;;;;;;;3.27;2.97;;;21.70;95.30;;;;;;5083907;28;20490;-21
2021/06/22 08:30:38;;;;;;;4.23;3.20;;;21.60;96.10;;;;;;5083786;28;20436;-26
2021/06/22 08:33:11;;;;;;;6.63;2.97;;;21.50;96.90;;;;;;5084411;28;20449;-24
2021/06/22 08:35:43;;;;;;;3.77;3.00;;;21.50;97.50;;;;;;5083750;28;20982;-22
2021/06/22 08:38:15;;;;;;;3.40;2.70;;;21.40;98.30;;;;;;5083427;28;20833;-24
2021/06/22 08:40:47;;;;;;;4.33;3.67;;;21.30;99.10;;;;;;5081940;28;20440;-22
2021/06/22 08:43:20;;;;;;;4.90;2.93;;;21.20;99.30;;;;;;5082179;28;20497;-23
2021/06/22 08:45:51;;;;;;;6.23;2.70;;;21.30;99.90;;;;;;5083328;28;20466;-22
2021/06/22 08:48:23;;;;;;;6.07;3.07;;;21.20;99.90;;;;;;5083804;28;20468;-21
2021/06/22 08:50:55;;;;;;;4.90;2.97;;;21.20;99.90;;;;;;5083178;28;20448;-22
2021/06/22 08:53:26;;;;;;;5.40;2.90;;;21.20;99.90;;;;;;5083763;28;20451;-21
2021/06/22 08:55:57;;;;;;;3.83;2.97;;;21.10;99.90;;;;;;5082639;28;20552;-21
2021/06/22 08:58:30;;;;;;;4.40;3.20;;;21.00;99.90;;;;;;5083066;28;20518;-21
2021/06/22 09:01:00;;;;;;;4.40;2.90;;;20.90;99.90;;;;;;5072751;28;20951;-22
2021/06/22 09:03:32;;;;;;;4.63;2.73;;;20.80;99.90;;;;;;5083915;28;20837;-21
2021/06/22 09:06:04;;;;;;;3.63;2.40;;;20.80;99.90;;;;;;5082335;28;20491;-22
2021/06/22 09:08:36;;;;;;;6.60;3.30;;;20.90;99.90;;;;;;5083009;28;20476;-24
2021/06/22 09:11:09;;;;;;;4.70;2.93;;;20.90;99.90;;;;;;5081974;28;20479;-23
2021/06/22 09:13:44;;;;;;;2.87;2.50;;;20.70;99.90;;;;;;5083244;28;20466;-21
2021/06/22 09:16:17;;;;;;;4.77;3.30;;;20.70;99.90;;;;;;5082455;28;20888;-26
2021/06/22 09:18:48;;;;;;;4.60;2.80;;;20.70;99.90;;;;;;5083448;28;20435;-21
2021/06/22 09:21:22;;;;;;;5.37;3.20;;;20.80;99.90;;;;;;5082139;28;20425;-22
2021/06/22 09:23:54;;;;;;;3.77;2.70;;;20.70;99.90;;;;;;5083093;28;20612;-23
2021/06/22 09:26:26;;;;;;;5.23;3.70;;;20.70;99.90;;;;;;5082220;28;20451;-21
2021/06/22 09:29:09;;;;;;;3.93;2.73;;;20.60;99.90;;;;;;5082377;28;20511;-21
2021/06/22 09:31:50;;;;;;;5.00;3.10;;;20.60;99.90;;;;;;5082789;28;20443;-21
2021/06/22 09:34:22;;;;;;;7.60;3.40;;;20.50;99.90;;;;;;5082526;28;20444;-25
2021/06/22 09:36:55;;;;;;;3.60;2.97;;;20.50;99.90;;;;;;5083395;28;20774;-21
2021/06/22 09:39:28;;;;;;;4.93;3.43;;;20.50;99.90;;;;;;5079675;28;20909;-22
2021/06/22 09:42:00;;;;;;;5.27;3.17;;;20.50;99.90;;;;;;5082927;28;20429;-23
2021/06/22 09:44:34;;;;;;;3.33;3.03;;;20.50;99.90;;;;;;5082798;28;20475;-21
2021/06/22 09:47:08;;;;;;;4.20;3.33;;;20.30;99.90;;;;;;5083206;28;20421;-21
2021/06/22 09:49:40;;;;;;;5.30;2.50;;;20.30;99.90;;;;;;5081799;28;20415;-23
2021/06/22 09:52:15;;;;;;;4.83;3.30;;;20.30;99.90;;;;;;5080875;28;20443;-21
2021/06/22 09:54:49;;;;;;;3.40;2.73;;;20.30;99.90;;;;;;5080570;28;20526;-21
2021/06/22 09:57:21;;;;;;;3.80;3.20;;;20.30;99.90;;;;;;5073012;28;20454;-22
2021/06/22 09:59:56;;;;;;;3.60;2.43;;;20.20;99.90;;;;;;5081707;28;20538;-24
2021/06/22 10:02:28;;;;;;;6.63;3.70;;;20.20;99.90;;;;;;5081261;28;20451;-23
2021/06/22 10:05:00;;;;;;;4.80;3.00;;;20.10;99.90;;;;;;5082297;28;20897;-21
2021/06/22 10:07:32;;;;;;;4.70;2.77;;;20.10;99.90;;;;;;5082800;28;20500;-23
2021/06/22 10:10:05;;;;;;;4.60;2.90;;;20.10;99.90;;;;;;5080889;28;20494;-22
2021/06/22 10:12:41;;;;;;;3.30;3.00;;;20.10;99.90;;;;;;5082694;28;20447;-23
2021/06/22 10:15:16;;;;;;;4.93;3.43;;;20.00;99.90;;;;;;5082357;28;20578;-21
2021/06/22 10:17:48;;;;;;;4.30;3.10;;;19.90;99.90;;;;;;5082687;28;20800;-21
2021/06/22 10:20:19;;;;;;;3.30;2.97;;;19.90;99.90;;;;;;5080928;28;20502;-21
2021/06/22 10:22:51;;;;;;;5.60;3.13;;;19.80;99.90;;;;;;5081724;28;20422;-21
2021/06/22 10:25:22;;;;;;;3.80;2.77;;;19.80;99.90;;;;;;5081421;28;20532;-22
2021/06/22 10:27:53;;;;;;;3.63;3.20;;;19.80;99.90;;;;;;5081955;28;20601;-22
2021/06/22 10:30:27;;;;;;;4.60;3.30;;;19.70;99.90;;;;;;5081450;28;20475;-22
2021/06/22 10:32:58;;;;;;;4.80;3.10;;;19.70;99.90;;;;;;5082536;28;20422;-21
2021/06/22 10:35:29;;;;;;;3.97;3.07;;;19.60;99.90;;;;;;5081823;28;20620;-21
2021/06/22 10:38:07;;;;;;;8.00;3.07;;;19.60;99.90;;;;;;5082787;28;20445;-21
2021/06/22 10:40:38;;;;;;;3.20;2.60;;;19.60;99.90;;;;;;5068619;28;20461;-21
2021/06/22 10:43:09;;;;;;;4.07;3.40;;;19.60;99.90;;;;;;5082001;28;20462;-23
2021/06/22 10:46:03;;;;;;;3.70;3.30;;;19.60;99.90;;;;;;5082032;28;20447;-22
2021/06/22 10:48:44;;;;;;;5.37;2.93;;;19.50;99.90;;;;;;5081935;28;20478;-22
2021/06/22 10:51:50;;;;;;;3.57;3.23;;;19.50;99.90;;;;;;5082740;28;20605;-21
2021/06/22 10:54:54;;;;;;;6.90;3.20;;;19.50;99.90;;;;;;5081664;28;20486;-23
2021/06/22 10:57:57;;;;;;;4.80;3.40;;;19.40;99.90;;;;;;5064948;28;20517;-21
2021/06/22 11:00:30;;;;;;;5.57;3.27;;;19.30;99.90;;;;;;5081116;28;20437;-24
2021/06/22 11:03:06;;;;;;;4.47;3.37;;;19.20;99.90;;;;;;5082456;28;20535;-21
2021/06/22 11:05:39;;;;;;;5.17;3.90;;;19.20;99.90;;;;;;5083439;28;20443;-21
2021/06/22 11:08:32;;;;;;;4.27;3.47;;;19.20;99.90;;;;;;5085916;28;20484;-24
2021/06/22 11:11:20;;;;;;;4.87;3.60;;;19.20;99.90;;;;;;5069878;28;20507;-22
2021/06/22 11:13:55;;;;;;;4.60;2.93;;;19.10;99.90;;;;;;5078826;28;20487;-21
2021/06/22 11:16:35;;;;;;;7.57;3.73;;;19.10;99.90;;;;;;5085288;28;20529;-22
2021/06/22 11:19:15;;;;;;;5.00;3.40;;;19.00;99.90;;;;;;5085210;28;20934;-22
2021/06/22 11:21:57;;;;;;;5.07;3.20;;;18.90;99.90;;;;;;5084505;28;20478;-21
2021/06/22 11:24:31;;;;;;;3.80;3.47;;;18.90;99.90;;;;;;5084570;28;20445;-21
2021/06/22 11:27:06;;;;;;;5.00;3.83;;;18.90;99.90;;;;;;5085450;28;20474;-21
2021/06/22 11:29:55;;;;;;;5.50;4.10;;;18.80;99.90;;;;;;5085119;28;20477;-21
2021/06/22 11:32:36;;;;;;;5.30;4.27;;;18.80;99.90;;;;;;5079037;28;20473;-21
2021/06/22 11:35:18;;;;;;;7.93;4.00;;;18.90;99.90;;;;;;5085441;28;20830;-21
2021/06/22 11:37:49;;;;;;;6.10;3.77;;;18.80;99.90;;;;;;5085639;28;20447;-20
2021/06/22 11:40:23;;;;;;;3.73;3.43;;;18.90;99.90;;;;;;5084154;28;20447;-24
2021/06/22 11:43:10;;;;;;;4.60;3.03;;;18.70;99.90;;;;;;5085272;28;20451;-22
2021/06/22 11:45:41;;;;;;;5.27;3.93;;;18.70;99.90;;;;;;5085389;28;20452;-22
2021/06/22 11:48:13;;;;;;;4.60;3.30;;;18.70;99.90;;;;;;5084804;28;20538;-22
2021/06/22 11:50:50;;;;;;;4.83;3.57;;;18.70;99.90;;;;;;5085490;28;20780;-21
2021/06/22 11:53:21;;;;;;;4.50;3.53;;;18.60;99.90;;;;;;5085371;28;20455;-21
2021/06/22 11:55:54;;;;;;;4.97;3.40;;;18.60;99.90;;;;;;5084305;28;20481;-22
2021/06/22 11:58:29;;;;;;;6.03;3.93;;;18.60;99.90;;;;;;5084939;28;20418;-22
2021/06/22 12:01:00;;;;;;;5.70;3.43;;;18.50;99.90;;;;;;5084627;28;20455;-21
2021/06/22 12:03:35;;;;;;;4.17;3.40;;;18.40;99.90;;;;;;5069157;28;20919;-20
2021/06/22 12:06:10;;;;;;;5.60;3.70;;;18.40;99.90;;;;;;5085390;28;20500;-21
2021/06/22 12:08:41;;;;;;;5.80;3.93;;;18.40;99.90;;;;;;5084433;28;20443;-21
2021/06/22 12:11:13;;;;;;;5.47;3.57;;;18.40;99.90;;;;;;5082799;28;21003;-21
2021/06/22 12:13:47;;;;;;;5.10;3.33;;;18.30;99.90;;;;;;5085011;28;20451;-21
2021/06/22 12:16:24;;;;;;;5.77;4.33;;;18.30;99.90;;;;;;5084270;28;20535;-22
2021/06/22 12:18:58;;;;;;;3.87;3.53;;;18.30;99.90;;;;;;5084203;28;20436;-21
2021/06/22 12:21:32;;;;;;;4.23;3.77;;;18.30;99.90;;;;;;5084499;28;20450;-22
2021/06/22 12:24:05;;;;;;;4.50;3.93;;;18.30;99.90;;;;;;5084237;28;20450;-21
2021/06/22 12:26:39;;;;;;;3.60;3.30;;;18.30;99.90;;;;;;5084600;28;20452;-26
2021/06/22 12:29:19;;;;;;;4.70;3.70;;;18.30;99.90;;;;;;5084044;28;20451;-21
2021/06/22 12:31:52;;;;;;;5.10;3.30;;;18.20;99.90;;;;;;5084148;28;20530;-21
2021/06/22 12:34:24;;;;;;;6.50;4.00;;;18.20;99.90;;;;;;5081984;28;20487;-21
2021/06/22 12:36:58;;;;;;;5.37;3.80;;;18.20;99.90;;;;;;5084438;28;20502;-22
2021/06/22 12:39:38;;;;;;;3.47;3.27;;;18.20;99.90;;;;;;5083407;28;20582;-22
2021/06/22 12:42:19;;;;;;;5.50;4.40;;;18.20;99.90;;;;;;5083836;28;20569;-21
2021/06/22 12:44:50;;;;;;;4.80;3.50;;;18.30;99.90;;;;;;5083647;28;20430;-21
2021/06/22 12:47:22;;;;;;;5.63;3.20;;;18.30;99.90;;;;;;5083623;28;20443;-22
2021/06/22 12:50:12;;;;;;;5.37;3.30;;;18.30;99.90;;;;;;5083597;28;20444;-22
2021/06/22 12:52:46;;;;;;;4.97;3.37;;;18.30;99.90;;;;;;5083133;28;20454;-24
2021/06/22 12:55:35;;;;;;;3.60;3.10;;;18.40;99.90;;;;;;5082538;28;20501;-22
2021/06/22 12:58:07;;;;;;;3.73;3.27;;;18.40;99.90;;;;;;5083769;28;20470;-22
2021/06/22 13:00:40;;;;;;;4.33;3.50;;;18.30;99.90;;;;;;5082555;28;20448;-22
2021/06/22 13:03:16;;;;;;;3.53;3.20;;;18.30;99.90;;;;;;5083483;28;20470;-23
2021/06/22 13:05:52;;;;;;;3.60;3.00;;;18.30;99.90;;;;;;5082997;28;20451;-22
2021/06/22 13:08:33;;;;;;;3.80;3.40;;;18.30;99.90;;;;;;5083508;28;20462;-22
2021/06/22 13:11:07;;;;;;;3.93;2.90;;;18.30;99.90;;;;;;5081285;28;20558;-22
2021/06/22 13:13:40;;;;;;;3.80;3.43;;;18.30;99.90;;;;;;5082348;28;20447;-20
2021/06/22 13:16:12;;;;;;;3.37;2.97;;;18.40;99.90;;;;;;5083384;28;20475;-22